sensor_id;sensor_type;location;lat;lon;timestamp;temperature;humidity
15083;DHT22;7640;53.116;6.878;2024-02-21T00:02:04;10.70;99.90
15083;DHT22;7640;53.116;6.878;2024-02-21T00:04:33;10.60;99.90
15083;DHT22;7640;53.116;6.878;2024-02-21T00:07:02;10.60;99.90
15083;DHT22;7640;53.116;6.878;2024-02-21T00:09:31;10.60;99.90
15083;DHT22;7640;53.116;6.878;2024-02-21T00:12:01;10.60;99.90
15083;DHT22;7640;53.116;6.878;2024-02-21T00:14:30;10.60;99.90
15083;DHT22;7640;53.116;6.878;2024-02-21T00:16:58;10.60;99.90
15083;DHT22;7640;53.116;6.878;2024-02-21T00:19:28;10.60;99.90
15083;DHT22;7640;53.116;6.878;2024-02-21T00:21:57;10.60;99.90
15083;DHT22;7640;53.116;6.878;2024-02-21T00:24:25;10.60;99.90
15083;DHT22;7640;53.116;6.878;2024-02-21T00:26:54;10.60;99.90
15083;DHT22;7640;53.116;6.878;2024-02-21T00:29:22;10.60;99.90
15083;DHT22;7640;53.116;6.878;2024-02-21T00:31:51;10.60;99.90
15083;DHT22;7640;53.116;6.878;2024-02-21T00:34:20;10.50;99.90
15083;DHT22;7640;53.116;6.878;2024-02-21T00:36:51;10.50;99.90
15083;DHT22;7640;53.116;6.878;2024-02-21T00:39:19;10.40;99.90
15083;DHT22;7640;53.116;6.878;2024-02-21T00:41:48;10.30;99.90
15083;DHT22;7640;53.116;6.878;2024-02-21T00:44:17;10.30;99.90
15083;DHT22;7640;53.116;6.878;2024-02-21T00:46:46;10.30;99.90
15083;DHT22;7640;53.116;6.878;2024-02-21T00:49:15;10.30;99.90
15083;DHT22;7640;53.116;6.878;2024-02-21T00:51:44;10.20;99.90
15083;DHT22;7640;53.116;6.878;2024-02-21T00:54:14;10.20;99.90
15083;DHT22;7640;53.116;6.878;2024-02-21T00:56:43;10.20;99.90
15083;DHT22;7640;53.116;6.878;2024-02-21T00:59:11;10.20;99.90
15083;DHT22;7640;53.116;6.878;2024-02-21T01:01:40;10.20;99.90
15083;DHT22;7640;53.116;6.878;2024-02-21T01:04:10;10.20;99.90
15083;DHT22;7640;53.116;6.878;2024-02-21T01:06:39;10.10;99.90
15083;DHT22;7640;53.116;6.878;2024-02-21T01:09:13;10.10;99.90
15083;DHT22;7640;53.116;6.878;2024-02-21T01:11:42;10.10;99.90
15083;DHT22;7640;53.116;6.878;2024-02-21T01:14:10;10.10;99.90
15083;DHT22;7640;53.116;6.878;2024-02-21T01:16:39;10.10;99.90
15083;DHT22;7640;53.116;6.878;2024-02-21T01:19:08;10.10;99.90
15083;DHT22;7640;53.116;6.878;2024-02-21T01:21:37;10.10;99.90
15083;DHT22;7640;53.116;6.878;2024-02-21T01:24:05;10.10;99.90
15083;DHT22;7640;53.116;6.878;2024-02-21T01:26:36;10.10;99.90
15083;DHT22;7640;53.116;6.878;2024-02-21T01:29:05;10.10;99.90
15083;DHT22;7640;53.116;6.878;2024-02-21T01:31:34;10.10;99.90
15083;DHT22;7640;53.116;6.878;2024-02-21T01:34:03;10.10;99.90
15083;DHT22;7640;53.116;6.878;2024-02-21T01:36:32;10.10;99.90
15083;DHT22;7640;53.116;6.878;2024-02-21T01:39:02;10.10;99.90
15083;DHT22;7640;53.116;6.878;2024-02-21T01:41:31;10.20;99.90
15083;DHT22;7640;53.116;6.878;2024-02-21T01:44:01;10.20;99.90
15083;DHT22;7640;53.116;6.878;2024-02-21T01:46:29;10.20;99.90
15083;DHT22;7640;53.116;6.878;2024-02-21T01:48:58;10.20;99.90
15083;DHT22;7640;53.116;6.878;2024-02-21T01:51:28;10.20;99.90
15083;DHT22;7640;53.116;6.878;2024-02-21T01:53:58;10.20;99.90
15083;DHT22;7640;53.116;6.878;2024-02-21T01:56:27;10.10;99.90
15083;DHT22;7640;53.116;6.878;2024-02-21T01:58:56;10.10;99.90
15083;DHT22;7640;53.116;6.878;2024-02-21T02:01:26;10.10;99.90
15083;DHT22;7640;53.116;6.878;2024-02-21T02:03:55;10.10;99.90
15083;DHT22;7640;53.116;6.878;2024-02-21T02:06:24;10.00;99.90
15083;DHT22;7640;53.116;6.878;2024-02-21T02:08:54;10.00;99.90
15083;DHT22;7640;53.116;6.878;2024-02-21T02:11:23;9.90;99.90
15083;DHT22;7640;53.116;6.878;2024-02-21T02:13:52;9.90;99.90
15083;DHT22;7640;53.116;6.878;2024-02-21T02:16:20;9.90;99.90
15083;DHT22;7640;53.116;6.878;2024-02-21T02:18:50;9.90;99.90
15083;DHT22;7640;53.116;6.878;2024-02-21T02:21:27;9.90;99.90
15083;DHT22;7640;53.116;6.878;2024-02-21T02:24:03;9.80;99.90
15083;DHT22;7640;53.116;6.878;2024-02-21T02:26:33;9.80;99.90
15083;DHT22;7640;53.116;6.878;2024-02-21T02:29:01;9.80;99.90
15083;DHT22;7640;53.116;6.878;2024-02-21T02:31:30;9.80;99.90
15083;DHT22;7640;53.116;6.878;2024-02-21T02:33:59;9.80;99.90
15083;DHT22;7640;53.116;6.878;2024-02-21T02:36:28;9.80;99.90
15083;DHT22;7640;53.116;6.878;2024-02-21T02:39:03;9.80;99.90
15083;DHT22;7640;53.116;6.878;2024-02-21T02:41:35;9.80;99.90
15083;DHT22;7640;53.116;6.878;2024-02-21T02:44:04;9.80;99.90
15083;DHT22;7640;53.116;6.878;2024-02-21T02:46:32;9.80;99.90
15083;DHT22;7640;53.116;6.878;2024-02-21T02:49:01;9.80;99.90
15083;DHT22;7640;53.116;6.878;2024-02-21T02:51:32;9.80;99.90
15083;DHT22;7640;53.116;6.878;2024-02-21T02:54:04;9.80;99.90
15083;DHT22;7640;53.116;6.878;2024-02-21T02:56:32;9.80;99.90
15083;DHT22;7640;53.116;6.878;2024-02-21T02:59:01;9.80;99.90
15083;DHT22;7640;53.116;6.878;2024-02-21T03:01:34;9.80;99.90
15083;DHT22;7640;53.116;6.878;2024-02-21T03:04:03;9.80;99.90
15083;DHT22;7640;53.116;6.878;2024-02-21T03:06:32;9.70;99.90
15083;DHT22;7640;53.116;6.878;2024-02-21T03:09:01;9.80;99.90
15083;DHT22;7640;53.116;6.878;2024-02-21T03:11:37;9.80;99.90
15083;DHT22;7640;53.116;6.878;2024-02-21T03:14:08;9.70;99.90
15083;DHT22;7640;53.116;6.878;2024-02-21T03:16:37;9.70;99.90
15083;DHT22;7640;53.116;6.878;2024-02-21T03:19:06;9.80;99.90
15083;DHT22;7640;53.116;6.878;2024-02-21T03:21:34;9.80;99.90
15083;DHT22;7640;53.116;6.878;2024-02-21T03:24:04;9.80;99.90
15083;DHT22;7640;53.116;6.878;2024-02-21T03:26:33;9.80;99.90
15083;DHT22;7640;53.116;6.878;2024-02-21T03:29:03;9.80;99.90
15083;DHT22;7640;53.116;6.878;2024-02-21T03:31:32;9.80;99.90
15083;DHT22;7640;53.116;6.878;2024-02-21T03:34:01;9.80;99.90
15083;DHT22;7640;53.116;6.878;2024-02-21T03:36:30;9.80;99.90
15083;DHT22;7640;53.116;6.878;2024-02-21T03:38:59;9.80;99.90
15083;DHT22;7640;53.116;6.878;2024-02-21T03:41:29;9.80;99.90
15083;DHT22;7640;53.116;6.878;2024-02-21T03:43:57;9.80;99.90
15083;DHT22;7640;53.116;6.878;2024-02-21T03:46:28;9.80;99.90
15083;DHT22;7640;53.116;6.878;2024-02-21T03:48:56;9.80;99.90
15083;DHT22;7640;53.116;6.878;2024-02-21T03:51:25;9.80;99.90
15083;DHT22;7640;53.116;6.878;2024-02-21T03:53:54;9.80;99.90
15083;DHT22;7640;53.116;6.878;2024-02-21T03:56:22;9.70;99.90
15083;DHT22;7640;53.116;6.878;2024-02-21T03:58:51;9.70;99.90
15083;DHT22;7640;53.116;6.878;2024-02-21T04:01:19;9.70;99.90
15083;DHT22;7640;53.116;6.878;2024-02-21T04:03:49;9.70;99.90
15083;DHT22;7640;53.116;6.878;2024-02-21T04:06:18;9.80;99.90
15083;DHT22;7640;53.116;6.878;2024-02-21T04:08:47;9.70;99.90
15083;DHT22;7640;53.116;6.878;2024-02-21T04:11:15;9.70;99.90
15083;DHT22;7640;53.116;6.878;2024-02-21T04:13:45;9.70;99.90
15083;DHT22;7640;53.116;6.878;2024-02-21T04:16:17;9.70;99.90
15083;DHT22;7640;53.116;6.878;2024-02-21T04:18:46;9.80;99.90
15083;DHT22;7640;53.116;6.878;2024-02-21T04:21:17;9.70;99.90
15083;DHT22;7640;53.116;6.878;2024-02-21T04:23:46;9.70;99.90
15083;DHT22;7640;53.116;6.878;2024-02-21T04:26:15;9.70;99.90
15083;DHT22;7640;53.116;6.878;2024-02-21T04:28:45;9.70;99.90
15083;DHT22;7640;53.116;6.878;2024-02-21T04:31:14;9.70;99.90
15083;DHT22;7640;53.116;6.878;2024-02-21T04:33:42;9.70;99.90
15083;DHT22;7640;53.116;6.878;2024-02-21T04:36:11;9.70;99.90
15083;DHT22;7640;53.116;6.878;2024-02-21T04:38:41;9.70;99.90
15083;DHT22;7640;53.116;6.878;2024-02-21T04:41:10;9.70;99.90
15083;DHT22;7640;53.116;6.878;2024-02-21T04:43:39;9.70;99.90
15083;DHT22;7640;53.116;6.878;2024-02-21T04:46:08;9.70;99.90
15083;DHT22;7640;53.116;6.878;2024-02-21T04:48:37;9.70;99.90
15083;DHT22;7640;53.116;6.878;2024-02-21T04:51:05;9.70;99.90
15083;DHT22;7640;53.116;6.878;2024-02-21T04:53:34;9.70;99.90
15083;DHT22;7640;53.116;6.878;2024-02-21T04:56:05;9.70;99.90
15083;DHT22;7640;53.116;6.878;2024-02-21T04:58:38;9.80;99.90
15083;DHT22;7640;53.116;6.878;2024-02-21T05:01:07;9.70;99.90
15083;DHT22;7640;53.116;6.878;2024-02-21T05:03:36;9.70;99.90
15083;DHT22;7640;53.116;6.878;2024-02-21T05:06:04;9.70;99.90
15083;DHT22;7640;53.116;6.878;2024-02-21T05:08:34;9.70;99.90
15083;DHT22;7640;53.116;6.878;2024-02-21T05:11:05;9.80;99.90
15083;DHT22;7640;53.116;6.878;2024-02-21T05:13:34;9.80;99.90
15083;DHT22;7640;53.116;6.878;2024-02-21T05:16:04;9.80;99.90
15083;DHT22;7640;53.116;6.878;2024-02-21T05:18:33;9.80;99.90
15083;DHT22;7640;53.116;6.878;2024-02-21T05:21:02;9.80;99.90
15083;DHT22;7640;53.116;6.878;2024-02-21T05:23:31;9.80;99.90
15083;DHT22;7640;53.116;6.878;2024-02-21T05:26:00;9.80;99.90
15083;DHT22;7640;53.116;6.878;2024-02-21T05:28:31;9.80;99.90
15083;DHT22;7640;53.116;6.878;2024-02-21T05:31:00;9.80;99.90
15083;DHT22;7640;53.116;6.878;2024-02-21T05:33:30;9.80;99.90
15083;DHT22;7640;53.116;6.878;2024-02-21T05:35:59;9.80;99.90
15083;DHT22;7640;53.116;6.878;2024-02-21T05:38:28;9.70;99.90
15083;DHT22;7640;53.116;6.878;2024-02-21T05:40:56;9.80;99.90
15083;DHT22;7640;53.116;6.878;2024-02-21T05:43:25;9.80;99.90
15083;DHT22;7640;53.116;6.878;2024-02-21T05:45:55;9.80;99.90
15083;DHT22;7640;53.116;6.878;2024-02-21T05:48:24;9.80;99.90
15083;DHT22;7640;53.116;6.878;2024-02-21T05:50:54;9.80;99.90
15083;DHT22;7640;53.116;6.878;2024-02-21T05:53:23;9.80;99.90
15083;DHT22;7640;53.116;6.878;2024-02-21T05:55:51;9.90;99.90
15083;DHT22;7640;53.116;6.878;2024-02-21T05:58:20;9.80;99.90
15083;DHT22;7640;53.116;6.878;2024-02-21T06:00:49;9.80;99.90
15083;DHT22;7640;53.116;6.878;2024-02-21T06:03:19;9.80;99.90
15083;DHT22;7640;53.116;6.878;2024-02-21T06:05:48;9.80;99.90
15083;DHT22;7640;53.116;6.878;2024-02-21T06:08:17;9.80;99.90
15083;DHT22;7640;53.116;6.878;2024-02-21T06:10:46;9.80;99.90
15083;DHT22;7640;53.116;6.878;2024-02-21T06:13:15;9.80;99.90
15083;DHT22;7640;53.116;6.878;2024-02-21T06:15:44;9.80;99.90
15083;DHT22;7640;53.116;6.878;2024-02-21T06:18:13;9.80;99.90
15083;DHT22;7640;53.116;6.878;2024-02-21T06:20:44;9.80;99.90
15083;DHT22;7640;53.116;6.878;2024-02-21T06:23:16;9.80;99.90
15083;DHT22;7640;53.116;6.878;2024-02-21T06:25:45;9.80;99.90
15083;DHT22;7640;53.116;6.878;2024-02-21T06:28:15;9.80;99.90
15083;DHT22;7640;53.116;6.878;2024-02-21T06:30:43;9.80;99.90
15083;DHT22;7640;53.116;6.878;2024-02-21T06:33:12;9.80;99.90
15083;DHT22;7640;53.116;6.878;2024-02-21T06:35:41;9.80;99.90
15083;DHT22;7640;53.116;6.878;2024-02-21T06:38:14;9.80;99.90
15083;DHT22;7640;53.116;6.878;2024-02-21T06:40:44;9.80;99.90
15083;DHT22;7640;53.116;6.878;2024-02-21T06:43:18;9.80;99.90
15083;DHT22;7640;53.116;6.878;2024-02-21T06:45:47;9.80;99.90
15083;DHT22;7640;53.116;6.878;2024-02-21T06:48:18;9.80;99.90
15083;DHT22;7640;53.116;6.878;2024-02-21T06:50:47;9.80;99.90
15083;DHT22;7640;53.116;6.878;2024-02-21T06:53:17;9.80;99.90
15083;DHT22;7640;53.116;6.878;2024-02-21T06:55:46;9.80;99.90
15083;DHT22;7640;53.116;6.878;2024-02-21T06:58:15;9.80;99.90
15083;DHT22;7640;53.116;6.878;2024-02-21T07:00:44;9.80;99.90
15083;DHT22;7640;53.116;6.878;2024-02-21T07:03:13;9.80;99.90
15083;DHT22;7640;53.116;6.878;2024-02-21T07:05:41;9.80;99.90
15083;DHT22;7640;53.116;6.878;2024-02-21T07:08:10;9.80;99.90
15083;DHT22;7640;53.116;6.878;2024-02-21T07:10:41;9.80;99.90
15083;DHT22;7640;53.116;6.878;2024-02-21T07:13:09;9.80;99.90
15083;DHT22;7640;53.116;6.878;2024-02-21T07:15:38;9.80;99.90
15083;DHT22;7640;53.116;6.878;2024-02-21T07:18:07;9.80;99.90
15083;DHT22;7640;53.116;6.878;2024-02-21T07:20:36;9.80;99.90
15083;DHT22;7640;53.116;6.878;2024-02-21T07:23:05;9.80;99.90
15083;DHT22;7640;53.116;6.878;2024-02-21T07:25:34;9.80;99.90
15083;DHT22;7640;53.116;6.878;2024-02-21T07:28:05;9.80;99.90
15083;DHT22;7640;53.116;6.878;2024-02-21T07:30:35;9.80;99.90
15083;DHT22;7640;53.116;6.878;2024-02-21T07:33:04;9.80;99.90
15083;DHT22;7640;53.116;6.878;2024-02-21T07:35:34;9.80;99.90
15083;DHT22;7640;53.116;6.878;2024-02-21T07:38:04;9.80;99.90
15083;DHT22;7640;53.116;6.878;2024-02-21T07:40:34;9.80;99.90
15083;DHT22;7640;53.116;6.878;2024-02-21T07:43:05;9.90;99.90
15083;DHT22;7640;53.116;6.878;2024-02-21T07:45:33;9.90;99.90
15083;DHT22;7640;53.116;6.878;2024-02-21T07:48:03;9.90;99.90
15083;DHT22;7640;53.116;6.878;2024-02-21T07:50:32;9.90;99.90
15083;DHT22;7640;53.116;6.878;2024-02-21T07:53:01;9.90;99.90
15083;DHT22;7640;53.116;6.878;2024-02-21T07:55:30;9.90;99.90
15083;DHT22;7640;53.116;6.878;2024-02-21T07:57:59;9.90;99.90
15083;DHT22;7640;53.116;6.878;2024-02-21T08:00:29;9.90;99.90
15083;DHT22;7640;53.116;6.878;2024-02-21T08:02:58;9.90;99.90
15083;DHT22;7640;53.116;6.878;2024-02-21T08:05:26;9.90;99.90
15083;DHT22;7640;53.116;6.878;2024-02-21T08:07:57;10.00;99.90
15083;DHT22;7640;53.116;6.878;2024-02-21T08:10:25;10.00;99.90
15083;DHT22;7640;53.116;6.878;2024-02-21T08:12:54;10.00;99.90
15083;DHT22;7640;53.116;6.878;2024-02-21T08:15:22;10.00;99.90
15083;DHT22;7640;53.116;6.878;2024-02-21T08:17:56;10.00;99.90
15083;DHT22;7640;53.116;6.878;2024-02-21T08:20:28;10.00;99.90
15083;DHT22;7640;53.116;6.878;2024-02-21T08:22:57;10.00;99.90
15083;DHT22;7640;53.116;6.878;2024-02-21T08:25:26;10.00;99.90
15083;DHT22;7640;53.116;6.878;2024-02-21T08:27:59;9.90;99.90
15083;DHT22;7640;53.116;6.878;2024-02-21T08:30:28;10.00;99.90
15083;DHT22;7640;53.116;6.878;2024-02-21T08:32:57;9.90;99.90
15083;DHT22;7640;53.116;6.878;2024-02-21T08:35:26;9.90;99.90
15083;DHT22;7640;53.116;6.878;2024-02-21T08:37:55;10.00;99.90
15083;DHT22;7640;53.116;6.878;2024-02-21T08:40:23;10.00;99.90
15083;DHT22;7640;53.116;6.878;2024-02-21T08:42:52;10.00;99.90
15083;DHT22;7640;53.116;6.878;2024-02-21T08:45:21;10.00;99.90
15083;DHT22;7640;53.116;6.878;2024-02-21T08:47:49;10.00;99.90
15083;DHT22;7640;53.116;6.878;2024-02-21T08:50:19;10.00;99.90
15083;DHT22;7640;53.116;6.878;2024-02-21T08:52:55;10.00;99.90
15083;DHT22;7640;53.116;6.878;2024-02-21T08:55:24;10.00;99.90
15083;DHT22;7640;53.116;6.878;2024-02-21T08:57:53;10.00;99.90
15083;DHT22;7640;53.116;6.878;2024-02-21T09:00:21;10.00;99.90
15083;DHT22;7640;53.116;6.878;2024-02-21T09:02:54;10.10;99.90
15083;DHT22;7640;53.116;6.878;2024-02-21T09:05:26;10.10;99.90
15083;DHT22;7640;53.116;6.878;2024-02-21T09:07:55;10.10;99.90
15083;DHT22;7640;53.116;6.878;2024-02-21T09:10:24;10.10;99.90
15083;DHT22;7640;53.116;6.878;2024-02-21T09:12:52;10.10;99.90
15083;DHT22;7640;53.116;6.878;2024-02-21T09:15:21;10.20;99.90
15083;DHT22;7640;53.116;6.878;2024-02-21T09:17:51;9.50;99.90
15083;DHT22;7640;53.116;6.878;2024-02-21T09:20:20;10.20;99.90
15083;DHT22;7640;53.116;6.878;2024-02-21T09:22:51;10.20;99.90
15083;DHT22;7640;53.116;6.878;2024-02-21T09:25:20;10.20;99.90
15083;DHT22;7640;53.116;6.878;2024-02-21T09:27:50;10.20;99.90
15083;DHT22;7640;53.116;6.878;2024-02-21T09:30:21;10.20;99.90
15083;DHT22;7640;53.116;6.878;2024-02-21T09:32:50;10.20;99.90
15083;DHT22;7640;53.116;6.878;2024-02-21T09:35:20;10.20;99.90
15083;DHT22;7640;53.116;6.878;2024-02-21T09:37:51;10.20;99.90
15083;DHT22;7640;53.116;6.878;2024-02-21T09:40:21;10.20;99.90
15083;DHT22;7640;53.116;6.878;2024-02-21T09:42:55;10.10;99.90
15083;DHT22;7640;53.116;6.878;2024-02-21T09:45:27;10.10;99.90
15083;DHT22;7640;53.116;6.878;2024-02-21T09:48:06;10.20;99.90
15083;DHT22;7640;53.116;6.878;2024-02-21T09:50:46;10.10;99.90
15083;DHT22;7640;53.116;6.878;2024-02-21T09:53:17;10.20;99.90
15083;DHT22;7640;53.116;6.878;2024-02-21T09:55:47;10.10;99.90
15083;DHT22;7640;53.116;6.878;2024-02-21T09:58:17;10.20;99.90
15083;DHT22;7640;53.116;6.878;2024-02-21T10:00:45;10.20;99.90
15083;DHT22;7640;53.116;6.878;2024-02-21T10:03:14;10.20;99.90
15083;DHT22;7640;53.116;6.878;2024-02-21T10:05:48;10.20;99.90
15083;DHT22;7640;53.116;6.878;2024-02-21T10:08:19;10.20;99.90
15083;DHT22;7640;53.116;6.878;2024-02-21T10:10:48;10.20;99.90
15083;DHT22;7640;53.116;6.878;2024-02-21T10:13:25;10.30;99.90
15083;DHT22;7640;53.116;6.878;2024-02-21T10:16:02;10.30;99.90
15083;DHT22;7640;53.116;6.878;2024-02-21T10:18:32;10.40;99.90
15083;DHT22;7640;53.116;6.878;2024-02-21T10:21:02;10.40;99.90
15083;DHT22;7640;53.116;6.878;2024-02-21T10:23:43;10.40;99.90
15083;DHT22;7640;53.116;6.878;2024-02-21T10:26:12;10.40;99.90
15083;DHT22;7640;53.116;6.878;2024-02-21T10:28:41;10.50;99.90
15083;DHT22;7640;53.116;6.878;2024-02-21T10:31:22;10.50;99.90
15083;DHT22;7640;53.116;6.878;2024-02-21T10:33:56;10.50;99.90
15083;DHT22;7640;53.116;6.878;2024-02-21T10:36:26;10.50;99.90
15083;DHT22;7640;53.116;6.878;2024-02-21T10:38:56;10.60;99.90
15083;DHT22;7640;53.116;6.878;2024-02-21T10:41:25;10.70;99.90
15083;DHT22;7640;53.116;6.878;2024-02-21T10:43:56;10.70;99.90
15083;DHT22;7640;53.116;6.878;2024-02-21T10:46:26;10.80;99.90
15083;DHT22;7640;53.116;6.878;2024-02-21T10:49:04;10.80;99.90
15083;DHT22;7640;53.116;6.878;2024-02-21T10:51:38;10.90;99.90
15083;DHT22;7640;53.116;6.878;2024-02-21T10:54:37;10.90;99.90
15083;DHT22;7640;53.116;6.878;2024-02-21T10:57:09;11.00;99.90
15083;DHT22;7640;53.116;6.878;2024-02-21T10:59:40;11.00;99.90
15083;DHT22;7640;53.116;6.878;2024-02-21T11:02:09;11.00;99.90
15083;DHT22;7640;53.116;6.878;2024-02-21T11:04:38;11.10;99.90
15083;DHT22;7640;53.116;6.878;2024-02-21T11:07:09;11.10;99.90
15083;DHT22;7640;53.116;6.878;2024-02-21T11:09:40;11.10;99.90
15083;DHT22;7640;53.116;6.878;2024-02-21T11:12:09;11.10;99.90
15083;DHT22;7640;53.116;6.878;2024-02-21T11:14:38;11.10;99.90
15083;DHT22;7640;53.116;6.878;2024-02-21T11:17:15;11.20;99.90
15083;DHT22;7640;53.116;6.878;2024-02-21T11:19:44;11.20;99.90
15083;DHT22;7640;53.116;6.878;2024-02-21T11:22:16;11.30;99.90
15083;DHT22;7640;53.116;6.878;2024-02-21T11:24:48;11.40;99.90
15083;DHT22;7640;53.116;6.878;2024-02-21T11:27:19;11.40;99.90
15083;DHT22;7640;53.116;6.878;2024-02-21T11:29:49;11.40;99.90
15083;DHT22;7640;53.116;6.878;2024-02-21T11:32:22;11.40;99.90
15083;DHT22;7640;53.116;6.878;2024-02-21T11:34:55;11.40;99.90
15083;DHT22;7640;53.116;6.878;2024-02-21T11:37:30;11.40;99.90
15083;DHT22;7640;53.116;6.878;2024-02-21T11:40:03;11.40;99.90
15083;DHT22;7640;53.116;6.878;2024-02-21T11:42:34;11.40;99.90
15083;DHT22;7640;53.116;6.878;2024-02-21T11:45:04;11.40;99.90
15083;DHT22;7640;53.116;6.878;2024-02-21T11:47:33;11.40;99.90
15083;DHT22;7640;53.116;6.878;2024-02-21T11:50:10;11.40;99.90
15083;DHT22;7640;53.116;6.878;2024-02-21T11:52:41;11.40;99.90
15083;DHT22;7640;53.116;6.878;2024-02-21T11:55:12;11.40;99.90
15083;DHT22;7640;53.116;6.878;2024-02-21T11:57:41;11.40;99.90
15083;DHT22;7640;53.116;6.878;2024-02-21T12:00:15;11.40;99.90
15083;DHT22;7640;53.116;6.878;2024-02-21T12:02:47;11.40;99.90
15083;DHT22;7640;53.116;6.878;2024-02-21T12:05:19;11.40;99.90
15083;DHT22;7640;53.116;6.878;2024-02-21T12:07:48;11.40;99.90
15083;DHT22;7640;53.116;6.878;2024-02-21T12:10:18;11.40;99.90
15083;DHT22;7640;53.116;6.878;2024-02-21T12:12:47;11.40;99.90
15083;DHT22;7640;53.116;6.878;2024-02-21T12:15:19;11.30;99.90
15083;DHT22;7640;53.116;6.878;2024-02-21T12:17:49;11.30;99.90
15083;DHT22;7640;53.116;6.878;2024-02-21T12:20:20;11.30;99.90
15083;DHT22;7640;53.116;6.878;2024-02-21T12:22:50;11.30;99.90
15083;DHT22;7640;53.116;6.878;2024-02-21T12:25:21;11.30;99.90
15083;DHT22;7640;53.116;6.878;2024-02-21T12:27:53;11.30;99.90
15083;DHT22;7640;53.116;6.878;2024-02-21T12:30:23;11.30;99.90
15083;DHT22;7640;53.116;6.878;2024-02-21T12:32:52;11.20;99.90
15083;DHT22;7640;53.116;6.878;2024-02-21T12:35:21;11.30;99.90
15083;DHT22;7640;53.116;6.878;2024-02-21T12:37:50;11.20;99.90
15083;DHT22;7640;53.116;6.878;2024-02-21T12:40:21;11.30;99.90
15083;DHT22;7640;53.116;6.878;2024-02-21T12:42:49;11.20;99.90
15083;DHT22;7640;53.116;6.878;2024-02-21T12:45:19;11.20;99.90
15083;DHT22;7640;53.116;6.878;2024-02-21T12:47:48;11.20;99.90
15083;DHT22;7640;53.116;6.878;2024-02-21T12:50:17;11.30;99.90
15083;DHT22;7640;53.116;6.878;2024-02-21T12:52:47;11.20;99.90
15083;DHT22;7640;53.116;6.878;2024-02-21T12:55:16;11.20;99.90
15083;DHT22;7640;53.116;6.878;2024-02-21T12:57:47;11.20;99.90
15083;DHT22;7640;53.116;6.878;2024-02-21T13:00:17;11.20;99.90
15083;DHT22;7640;53.116;6.878;2024-02-21T13:02:47;11.20;99.90
15083;DHT22;7640;53.116;6.878;2024-02-21T13:05:15;11.20;99.90
15083;DHT22;7640;53.116;6.878;2024-02-21T13:07:44;11.20;99.90
15083;DHT22;7640;53.116;6.878;2024-02-21T13:10:13;11.10;99.90
15083;DHT22;7640;53.116;6.878;2024-02-21T13:12:42;11.20;99.90
15083;DHT22;7640;53.116;6.878;2024-02-21T13:15:12;11.10;99.90
15083;DHT22;7640;53.116;6.878;2024-02-21T13:17:43;11.10;99.90
15083;DHT22;7640;53.116;6.878;2024-02-21T13:20:13;11.10;99.90
15083;DHT22;7640;53.116;6.878;2024-02-21T13:22:41;11.10;99.90
15083;DHT22;7640;53.116;6.878;2024-02-21T13:25:10;11.10;99.90
15083;DHT22;7640;53.116;6.878;2024-02-21T13:27:42;11.10;99.90
15083;DHT22;7640;53.116;6.878;2024-02-21T13:30:13;11.10;99.90
15083;DHT22;7640;53.116;6.878;2024-02-21T13:32:43;11.20;99.90
15083;DHT22;7640;53.116;6.878;2024-02-21T13:35:13;11.20;99.90
15083;DHT22;7640;53.116;6.878;2024-02-21T13:37:43;11.30;99.90
15083;DHT22;7640;53.116;6.878;2024-02-21T13:40:11;11.30;99.90
15083;DHT22;7640;53.116;6.878;2024-02-21T13:42:41;11.40;99.90
15083;DHT22;7640;53.116;6.878;2024-02-21T13:45:11;11.40;99.90
15083;DHT22;7640;53.116;6.878;2024-02-21T13:47:40;11.50;99.90
15083;DHT22;7640;53.116;6.878;2024-02-21T13:50:10;11.50;99.90
15083;DHT22;7640;53.116;6.878;2024-02-21T13:52:39;11.50;99.90
15083;DHT22;7640;53.116;6.878;2024-02-21T13:55:09;11.60;99.90
15083;DHT22;7640;53.116;6.878;2024-02-21T13:57:39;11.60;99.90
15083;DHT22;7640;53.116;6.878;2024-02-21T14:00:12;11.50;99.90
15083;DHT22;7640;53.116;6.878;2024-02-21T14:02:41;11.50;99.90
15083;DHT22;7640;53.116;6.878;2024-02-21T14:05:10;11.50;99.90
15083;DHT22;7640;53.116;6.878;2024-02-21T14:07:39;11.50;99.90
15083;DHT22;7640;53.116;6.878;2024-02-21T14:10:09;11.40;99.90
15083;DHT22;7640;53.116;6.878;2024-02-21T14:12:38;11.40;99.90
15083;DHT22;7640;53.116;6.878;2024-02-21T14:15:07;11.40;99.90
15083;DHT22;7640;53.116;6.878;2024-02-21T14:17:38;11.40;99.90
15083;DHT22;7640;53.116;6.878;2024-02-21T14:20:08;11.40;99.90
15083;DHT22;7640;53.116;6.878;2024-02-21T14:22:41;11.30;99.90
15083;DHT22;7640;53.116;6.878;2024-02-21T14:25:10;11.30;99.90
15083;DHT22;7640;53.116;6.878;2024-02-21T14:27:39;11.20;99.90
15083;DHT22;7640;53.116;6.878;2024-02-21T14:30:11;11.20;99.90
15083;DHT22;7640;53.116;6.878;2024-02-21T14:32:44;11.20;99.90
15083;DHT22;7640;53.116;6.878;2024-02-21T14:35:13;11.10;99.90
15083;DHT22;7640;53.116;6.878;2024-02-21T14:37:43;11.10;99.90
15083;DHT22;7640;53.116;6.878;2024-02-21T14:40:13;11.10;99.90
15083;DHT22;7640;53.116;6.878;2024-02-21T14:42:41;11.00;99.90
15083;DHT22;7640;53.116;6.878;2024-02-21T14:45:10;11.00;99.90
15083;DHT22;7640;53.116;6.878;2024-02-21T14:47:42;11.00;99.90
15083;DHT22;7640;53.116;6.878;2024-02-21T14:50:11;11.00;99.90
15083;DHT22;7640;53.116;6.878;2024-02-21T14:52:40;11.00;99.90
15083;DHT22;7640;53.116;6.878;2024-02-21T14:55:13;10.90;99.90
15083;DHT22;7640;53.116;6.878;2024-02-21T14:57:42;10.90;99.90
15083;DHT22;7640;53.116;6.878;2024-02-21T15:00:12;10.80;99.90
15083;DHT22;7640;53.116;6.878;2024-02-21T15:02:43;10.80;99.90
15083;DHT22;7640;53.116;6.878;2024-02-21T15:05:11;10.80;99.90
15083;DHT22;7640;53.116;6.878;2024-02-21T15:07:41;10.80;99.90
15083;DHT22;7640;53.116;6.878;2024-02-21T15:10:10;10.70;99.90
15083;DHT22;7640;53.116;6.878;2024-02-21T15:12:39;10.80;99.90
15083;DHT22;7640;53.116;6.878;2024-02-21T15:15:09;10.80;99.90
15083;DHT22;7640;53.116;6.878;2024-02-21T15:17:39;10.70;99.90
15083;DHT22;7640;53.116;6.878;2024-02-21T15:20:12;10.70;99.90
15083;DHT22;7640;53.116;6.878;2024-02-21T15:22:41;10.70;99.90
15083;DHT22;7640;53.116;6.878;2024-02-21T15:25:10;10.70;99.90
15083;DHT22;7640;53.116;6.878;2024-02-21T15:27:42;10.70;99.90
15083;DHT22;7640;53.116;6.878;2024-02-21T15:30:12;10.70;99.90
15083;DHT22;7640;53.116;6.878;2024-02-21T15:32:41;10.70;99.90
15083;DHT22;7640;53.116;6.878;2024-02-21T15:35:13;10.70;99.90
15083;DHT22;7640;53.116;6.878;2024-02-21T15:37:42;10.60;99.90
15083;DHT22;7640;53.116;6.878;2024-02-21T15:40:11;10.70;99.90
15083;DHT22;7640;53.116;6.878;2024-02-21T15:42:40;10.60;99.90
15083;DHT22;7640;53.116;6.878;2024-02-21T15:45:09;10.60;99.90
15083;DHT22;7640;53.116;6.878;2024-02-21T15:47:38;10.60;99.90
15083;DHT22;7640;53.116;6.878;2024-02-21T15:50:08;10.60;99.90
15083;DHT22;7640;53.116;6.878;2024-02-21T15:52:42;10.60;99.90
15083;DHT22;7640;53.116;6.878;2024-02-21T15:55:11;10.60;99.90
15083;DHT22;7640;53.116;6.878;2024-02-21T15:57:44;10.60;99.90
15083;DHT22;7640;53.116;6.878;2024-02-21T16:00:14;10.60;99.90
15083;DHT22;7640;53.116;6.878;2024-02-21T16:02:44;10.60;99.90
15083;DHT22;7640;53.116;6.878;2024-02-21T16:05:13;10.60;99.90
15083;DHT22;7640;53.116;6.878;2024-02-21T16:07:44;10.60;99.90
15083;DHT22;7640;53.116;6.878;2024-02-21T16:10:13;10.60;99.90